Skip Navigation LinksHome page > Weather > Current weather Skip Navigation Links

Current Weather

Chicago O'Hare Intl, Chicago

For information only: do not use for flight planning or navigation.
Latest weather
Observation time Wednesday, May 6, 2015 11:51 PM CDT
Local time Thursday, May 7, 2015 12:37 AM CDT
Flight conditions Visual Meteorological Conditions
Winds
Wind direction East-Northeast (70°)
Wind speed 3 mph
Visibility 8 mi.
Sky condition
Ceiling unlimited
Cloud layer scattered clouds 8,500 ft.
Temperature 56°F
Dewpoint 50°F
Altimeter 30.06 in.Hg
Derived measurements
Relative humidity 80%
Density altitude 481 ft.
Sea-level pressure 30.06 in.Hg
Remarks
Automated weather observing station with precipitation discriminator.
METAR KORD 070451Z 07003KT 8SM SCT085 13/10 A3006 RMK AO2 SLP179 T01330100

Settings

Location code

InnerDrive.Weather 4.0.5567.0 Release CLR 4.0.30319.34014
Copyright ©2015 Inner Drive Technology. All rights reserved. Portions Copyright ©1986-2015 David Braverman.

Find weather

Site navigation


Skip Navigation Links

Place info

Page info

PayPal - The safer, easier way to pay online!

Return home.

Copyright ©2015 Inner Drive Technology. Purveyors of fine, hand-crafted computer software. Page printed 2015-05-07T05:37:38 UTC.